sensor_id;sensor_type;location;lat;lon;timestamp;P1;durP1;ratioP1;P2;durP2;ratioP2
8480;SDS011;4277;51.354;6.740;2023-03-01T00:01:49;10.33;;;7.70;;
8480;SDS011;4277;51.354;6.740;2023-03-01T00:04:15;10.87;;;7.77;;
8480;SDS011;4277;51.354;6.740;2023-03-01T00:06:42;12.57;;;8.10;;
8480;SDS011;4277;51.354;6.740;2023-03-01T00:09:11;10.37;;;7.97;;
8480;SDS011;4277;51.354;6.740;2023-03-01T00:11:37;10.77;;;8.27;;
8480;SDS011;4277;51.354;6.740;2023-03-01T00:14:03;9.63;;;8.27;;
8480;SDS011;4277;51.354;6.740;2023-03-01T00:16:37;13.00;;;8.10;;
8480;SDS011;4277;51.354;6.740;2023-03-01T00:19:04;10.73;;;8.40;;
8480;SDS011;4277;51.354;6.740;2023-03-01T00:21:30;11.93;;;8.27;;
8480;SDS011;4277;51.354;6.740;2023-03-01T00:23:56;10.60;;;7.90;;
8480;SDS011;4277;51.354;6.740;2023-03-01T00:26:23;10.43;;;7.97;;
8480;SDS011;4277;51.354;6.740;2023-03-01T00:28:49;11.00;;;8.30;;
8480;SDS011;4277;51.354;6.740;2023-03-01T00:31:17;12.03;;;8.23;;
8480;SDS011;4277;51.354;6.740;2023-03-01T00:33:43;11.97;;;7.90;;
8480;SDS011;4277;51.354;6.740;2023-03-01T00:36:10;11.37;;;8.20;;
8480;SDS011;4277;51.354;6.740;2023-03-01T00:38:38;12.37;;;8.30;;
8480;SDS011;4277;51.354;6.740;2023-03-01T00:41:05;11.53;;;8.33;;
8480;SDS011;4277;51.354;6.740;2023-03-01T00:43:31;11.07;;;8.23;;
8480;SDS011;4277;51.354;6.740;2023-03-01T00:46:01;9.83;;;7.53;;
8480;SDS011;4277;51.354;6.740;2023-03-01T00:48:28;8.83;;;7.43;;
8480;SDS011;4277;51.354;6.740;2023-03-01T00:50:54;10.37;;;8.17;;
8480;SDS011;4277;51.354;6.740;2023-03-01T00:53:19;11.33;;;8.90;;
8480;SDS011;4277;51.354;6.740;2023-03-01T00:55:45;11.53;;;8.00;;
8480;SDS011;4277;51.354;6.740;2023-03-01T00:58:11;12.93;;;8.23;;
8480;SDS011;4277;51.354;6.740;2023-03-01T01:00:37;13.13;;;9.20;;
8480;SDS011;4277;51.354;6.740;2023-03-01T01:03:03;13.23;;;8.47;;
8480;SDS011;4277;51.354;6.740;2023-03-01T01:05:29;11.63;;;8.50;;
8480;SDS011;4277;51.354;6.740;2023-03-01T01:07:55;10.57;;;8.07;;
8480;SDS011;4277;51.354;6.740;2023-03-01T01:10:21;10.50;;;8.53;;
8480;SDS011;4277;51.354;6.740;2023-03-01T01:12:47;10.47;;;7.97;;
8480;SDS011;4277;51.354;6.740;2023-03-01T01:15:13;11.67;;;8.77;;
8480;SDS011;4277;51.354;6.740;2023-03-01T01:17:41;11.07;;;8.73;;
8480;SDS011;4277;51.354;6.740;2023-03-01T01:20:07;12.93;;;9.73;;
8480;SDS011;4277;51.354;6.740;2023-03-01T01:22:34;13.73;;;9.87;;
8480;SDS011;4277;51.354;6.740;2023-03-01T01:24:59;10.33;;;8.63;;
8480;SDS011;4277;51.354;6.740;2023-03-01T01:27:25;10.33;;;8.63;;
8480;SDS011;4277;51.354;6.740;2023-03-01T01:29:52;12.97;;;9.13;;
8480;SDS011;4277;51.354;6.740;2023-03-01T01:32:18;12.87;;;8.60;;
8480;SDS011;4277;51.354;6.740;2023-03-01T01:34:44;11.20;;;8.93;;
8480;SDS011;4277;51.354;6.740;2023-03-01T01:37:11;11.97;;;9.13;;
8480;SDS011;4277;51.354;6.740;2023-03-01T01:39:37;12.13;;;9.00;;
8480;SDS011;4277;51.354;6.740;2023-03-01T01:42:03;11.27;;;8.23;;
8480;SDS011;4277;51.354;6.740;2023-03-01T01:44:29;10.60;;;8.07;;
8480;SDS011;4277;51.354;6.740;2023-03-01T01:47:04;12.60;;;8.87;;
8480;SDS011;4277;51.354;6.740;2023-03-01T01:49:37;11.30;;;8.20;;
8480;SDS011;4277;51.354;6.740;2023-03-01T01:57:36;10.27;;;8.13;;
8480;SDS011;4277;51.354;6.740;2023-03-01T02:00:07;10.90;;;8.03;;
8480;SDS011;4277;51.354;6.740;2023-03-01T02:02:33;12.17;;;8.07;;
8480;SDS011;4277;51.354;6.740;2023-03-01T02:05:05;11.80;;;9.27;;
8480;SDS011;4277;51.354;6.740;2023-03-01T02:07:35;13.90;;;9.23;;
8480;SDS011;4277;51.354;6.740;2023-03-01T02:10:02;10.97;;;8.93;;
8480;SDS011;4277;51.354;6.740;2023-03-01T02:12:28;11.43;;;8.30;;
8480;SDS011;4277;51.354;6.740;2023-03-01T02:14:54;11.77;;;8.53;;
8480;SDS011;4277;51.354;6.740;2023-03-01T02:17:20;10.60;;;8.30;;
8480;SDS011;4277;51.354;6.740;2023-03-01T02:27:17;12.23;;;9.13;;
8480;SDS011;4277;51.354;6.740;2023-03-01T02:29:49;11.67;;;9.00;;
8480;SDS011;4277;51.354;6.740;2023-03-01T02:32:15;12.23;;;9.13;;
8480;SDS011;4277;51.354;6.740;2023-03-01T02:34:49;10.70;;;8.97;;
8480;SDS011;4277;51.354;6.740;2023-03-01T02:37:15;13.50;;;8.80;;
8480;SDS011;4277;51.354;6.740;2023-03-01T02:39:49;10.80;;;8.13;;
8480;SDS011;4277;51.354;6.740;2023-03-01T02:42:18;12.30;;;9.00;;
8480;SDS011;4277;51.354;6.740;2023-03-01T02:44:48;12.60;;;9.23;;
8480;SDS011;4277;51.354;6.740;2023-03-01T02:47:14;13.50;;;9.50;;
8480;SDS011;4277;51.354;6.740;2023-03-01T02:49:40;12.07;;;9.60;;
8480;SDS011;4277;51.354;6.740;2023-03-01T02:54:52;12.43;;;9.07;;
8480;SDS011;4277;51.354;6.740;2023-03-01T02:57:19;10.83;;;8.67;;
8480;SDS011;4277;51.354;6.740;2023-03-01T02:59:46;11.70;;;9.00;;
8480;SDS011;4277;51.354;6.740;2023-03-01T03:02:26;12.17;;;9.23;;
8480;SDS011;4277;51.354;6.740;2023-03-01T03:05:06;12.97;;;9.40;;
8480;SDS011;4277;51.354;6.740;2023-03-01T03:07:33;11.13;;;8.83;;
8480;SDS011;4277;51.354;6.740;2023-03-01T03:09:59;12.53;;;8.60;;
8480;SDS011;4277;51.354;6.740;2023-03-01T03:12:25;12.10;;;9.37;;
8480;SDS011;4277;51.354;6.740;2023-03-01T03:14:51;11.40;;;9.03;;
8480;SDS011;4277;51.354;6.740;2023-03-01T03:17:17;15.37;;;9.40;;
8480;SDS011;4277;51.354;6.740;2023-03-01T03:19:43;13.30;;;9.47;;
8480;SDS011;4277;51.354;6.740;2023-03-01T03:22:10;13.90;;;9.97;;
8480;SDS011;4277;51.354;6.740;2023-03-01T03:24:36;13.83;;;10.20;;
8480;SDS011;4277;51.354;6.740;2023-03-01T03:27:03;12.93;;;8.87;;
8480;SDS011;4277;51.354;6.740;2023-03-01T03:29:29;12.50;;;9.00;;
8480;SDS011;4277;51.354;6.740;2023-03-01T03:31:55;12.90;;;9.50;;
8480;SDS011;4277;51.354;6.740;2023-03-01T03:34:21;12.00;;;9.20;;
8480;SDS011;4277;51.354;6.740;2023-03-01T03:36:47;11.80;;;9.50;;
8480;SDS011;4277;51.354;6.740;2023-03-01T03:39:13;12.37;;;9.13;;
8480;SDS011;4277;51.354;6.740;2023-03-01T03:41:39;12.73;;;9.43;;
8480;SDS011;4277;51.354;6.740;2023-03-01T03:44:05;11.43;;;8.83;;
8480;SDS011;4277;51.354;6.740;2023-03-01T03:46:31;13.10;;;9.07;;
8480;SDS011;4277;51.354;6.740;2023-03-01T03:48:57;12.40;;;8.57;;
8480;SDS011;4277;51.354;6.740;2023-03-01T03:51:23;13.70;;;9.20;;
8480;SDS011;4277;51.354;6.740;2023-03-01T03:53:49;17.03;;;9.90;;
8480;SDS011;4277;51.354;6.740;2023-03-01T03:56:15;12.10;;;9.33;;
8480;SDS011;4277;51.354;6.740;2023-03-01T03:58:41;11.77;;;9.03;;
8480;SDS011;4277;51.354;6.740;2023-03-01T04:01:07;13.50;;;9.43;;
8480;SDS011;4277;51.354;6.740;2023-03-01T04:03:33;13.43;;;9.73;;
8480;SDS011;4277;51.354;6.740;2023-03-01T04:06:00;13.23;;;9.33;;
8480;SDS011;4277;51.354;6.740;2023-03-01T04:08:27;14.03;;;9.60;;
8480;SDS011;4277;51.354;6.740;2023-03-01T04:10:56;11.50;;;9.23;;
8480;SDS011;4277;51.354;6.740;2023-03-01T04:13:23;12.23;;;9.03;;
8480;SDS011;4277;51.354;6.740;2023-03-01T04:15:50;10.67;;;8.57;;
8480;SDS011;4277;51.354;6.740;2023-03-01T04:18:17;15.87;;;10.17;;
8480;SDS011;4277;51.354;6.740;2023-03-01T04:20:45;16.57;;;10.17;;
8480;SDS011;4277;51.354;6.740;2023-03-01T04:23:12;11.77;;;9.67;;
8480;SDS011;4277;51.354;6.740;2023-03-01T04:25:46;13.20;;;9.07;;
8480;SDS011;4277;51.354;6.740;2023-03-01T04:28:21;13.90;;;9.40;;
8480;SDS011;4277;51.354;6.740;2023-03-01T04:30:51;12.53;;;8.73;;
8480;SDS011;4277;51.354;6.740;2023-03-01T04:33:18;12.57;;;9.27;;
8480;SDS011;4277;51.354;6.740;2023-03-01T04:35:44;14.47;;;9.50;;
8480;SDS011;4277;51.354;6.740;2023-03-01T04:38:10;14.33;;;9.87;;
8480;SDS011;4277;51.354;6.740;2023-03-01T04:40:36;12.07;;;9.33;;
8480;SDS011;4277;51.354;6.740;2023-03-01T04:43:02;13.97;;;10.30;;
8480;SDS011;4277;51.354;6.740;2023-03-01T04:45:29;13.77;;;9.43;;
8480;SDS011;4277;51.354;6.740;2023-03-01T04:47:54;12.00;;;9.03;;
8480;SDS011;4277;51.354;6.740;2023-03-01T04:50:23;15.87;;;9.73;;
8480;SDS011;4277;51.354;6.740;2023-03-01T04:52:48;13.93;;;9.67;;
8480;SDS011;4277;51.354;6.740;2023-03-01T04:55:14;12.83;;;9.27;;
8480;SDS011;4277;51.354;6.740;2023-03-01T04:57:40;12.67;;;9.33;;
8480;SDS011;4277;51.354;6.740;2023-03-01T05:00:06;11.97;;;9.50;;
8480;SDS011;4277;51.354;6.740;2023-03-01T05:05:18;12.40;;;8.80;;
8480;SDS011;4277;51.354;6.740;2023-03-01T05:07:44;12.23;;;9.03;;
8480;SDS011;4277;51.354;6.740;2023-03-01T05:10:10;18.07;;;10.63;;
8480;SDS011;4277;51.354;6.740;2023-03-01T05:12:35;12.50;;;9.57;;
8480;SDS011;4277;51.354;6.740;2023-03-01T05:15:02;15.00;;;10.03;;
8480;SDS011;4277;51.354;6.740;2023-03-01T05:17:31;12.27;;;9.27;;
8480;SDS011;4277;51.354;6.740;2023-03-01T05:19:58;13.03;;;9.63;;
8480;SDS011;4277;51.354;6.740;2023-03-01T05:22:24;13.30;;;9.10;;
8480;SDS011;4277;51.354;6.740;2023-03-01T05:24:50;13.97;;;10.00;;
8480;SDS011;4277;51.354;6.740;2023-03-01T05:27:16;12.47;;;9.70;;
8480;SDS011;4277;51.354;6.740;2023-03-01T05:29:41;13.60;;;10.23;;
8480;SDS011;4277;51.354;6.740;2023-03-01T05:32:07;13.97;;;9.80;;
8480;SDS011;4277;51.354;6.740;2023-03-01T05:34:34;15.33;;;10.80;;
8480;SDS011;4277;51.354;6.740;2023-03-01T05:37:00;14.03;;;9.70;;
8480;SDS011;4277;51.354;6.740;2023-03-01T05:39:27;13.17;;;9.20;;
8480;SDS011;4277;51.354;6.740;2023-03-01T05:41:55;17.37;;;10.10;;
8480;SDS011;4277;51.354;6.740;2023-03-01T05:44:23;12.83;;;8.90;;
8480;SDS011;4277;51.354;6.740;2023-03-01T05:46:49;12.87;;;9.03;;
8480;SDS011;4277;51.354;6.740;2023-03-01T05:49:15;14.13;;;9.70;;
8480;SDS011;4277;51.354;6.740;2023-03-01T05:51:41;13.37;;;9.03;;
8480;SDS011;4277;51.354;6.740;2023-03-01T05:54:08;13.33;;;9.63;;
8480;SDS011;4277;51.354;6.740;2023-03-01T05:56:35;17.27;;;10.77;;
8480;SDS011;4277;51.354;6.740;2023-03-01T05:59:03;18.43;;;10.90;;
8480;SDS011;4277;51.354;6.740;2023-03-01T06:01:32;17.87;;;10.77;;
8480;SDS011;4277;51.354;6.740;2023-03-01T06:03:59;13.93;;;10.17;;
8480;SDS011;4277;51.354;6.740;2023-03-01T06:06:25;15.87;;;10.17;;
8480;SDS011;4277;51.354;6.740;2023-03-01T06:08:51;14.67;;;10.97;;
8480;SDS011;4277;51.354;6.740;2023-03-01T06:11:18;14.27;;;9.47;;
8480;SDS011;4277;51.354;6.740;2023-03-01T06:13:44;14.40;;;10.47;;
8480;SDS011;4277;51.354;6.740;2023-03-01T06:16:10;16.13;;;10.27;;
8480;SDS011;4277;51.354;6.740;2023-03-01T06:18:37;14.77;;;10.27;;
8480;SDS011;4277;51.354;6.740;2023-03-01T06:21:03;15.13;;;10.10;;
8480;SDS011;4277;51.354;6.740;2023-03-01T06:23:30;13.17;;;9.53;;
8480;SDS011;4277;51.354;6.740;2023-03-01T06:25:56;13.37;;;9.57;;
8480;SDS011;4277;51.354;6.740;2023-03-01T06:28:21;16.67;;;10.10;;
8480;SDS011;4277;51.354;6.740;2023-03-01T06:30:48;12.67;;;9.27;;
8480;SDS011;4277;51.354;6.740;2023-03-01T06:33:15;16.03;;;10.40;;
8480;SDS011;4277;51.354;6.740;2023-03-01T06:35:40;41.97;;;11.73;;
8480;SDS011;4277;51.354;6.740;2023-03-01T06:38:06;15.83;;;10.47;;
8480;SDS011;4277;51.354;6.740;2023-03-01T06:40:31;14.90;;;10.83;;
8480;SDS011;4277;51.354;6.740;2023-03-01T06:43:00;16.07;;;10.43;;
8480;SDS011;4277;51.354;6.740;2023-03-01T06:45:25;14.63;;;10.80;;
8480;SDS011;4277;51.354;6.740;2023-03-01T06:47:51;14.47;;;10.30;;
8480;SDS011;4277;51.354;6.740;2023-03-01T06:50:17;16.50;;;10.87;;
8480;SDS011;4277;51.354;6.740;2023-03-01T06:52:43;14.23;;;10.30;;
8480;SDS011;4277;51.354;6.740;2023-03-01T06:55:10;13.97;;;10.17;;
8480;SDS011;4277;51.354;6.740;2023-03-01T06:57:36;16.10;;;10.60;;
8480;SDS011;4277;51.354;6.740;2023-03-01T07:00:03;15.67;;;10.57;;
8480;SDS011;4277;51.354;6.740;2023-03-01T07:02:30;15.07;;;11.07;;
8480;SDS011;4277;51.354;6.740;2023-03-01T07:04:56;17.57;;;11.07;;
8480;SDS011;4277;51.354;6.740;2023-03-01T07:07:21;15.93;;;10.90;;
8480;SDS011;4277;51.354;6.740;2023-03-01T07:09:48;20.07;;;11.87;;
8480;SDS011;4277;51.354;6.740;2023-03-01T07:12:14;16.30;;;11.10;;
8480;SDS011;4277;51.354;6.740;2023-03-01T07:14:40;17.70;;;11.20;;
8480;SDS011;4277;51.354;6.740;2023-03-01T07:17:05;16.23;;;11.43;;
8480;SDS011;4277;51.354;6.740;2023-03-01T07:19:31;17.97;;;10.80;;
8480;SDS011;4277;51.354;6.740;2023-03-01T07:21:57;16.03;;;11.40;;
8480;SDS011;4277;51.354;6.740;2023-03-01T07:24:22;15.37;;;11.07;;
8480;SDS011;4277;51.354;6.740;2023-03-01T07:26:48;16.23;;;10.93;;
8480;SDS011;4277;51.354;6.740;2023-03-01T07:29:15;14.10;;;10.37;;
8480;SDS011;4277;51.354;6.740;2023-03-01T07:31:41;18.87;;;11.20;;
8480;SDS011;4277;51.354;6.740;2023-03-01T07:34:07;13.80;;;10.17;;
8480;SDS011;4277;51.354;6.740;2023-03-01T07:36:32;14.93;;;10.37;;
8480;SDS011;4277;51.354;6.740;2023-03-01T07:38:58;14.53;;;10.33;;
8480;SDS011;4277;51.354;6.740;2023-03-01T07:41:24;14.23;;;9.93;;
8480;SDS011;4277;51.354;6.740;2023-03-01T07:43:49;14.33;;;9.73;;
8480;SDS011;4277;51.354;6.740;2023-03-01T07:46:15;17.47;;;11.00;;
8480;SDS011;4277;51.354;6.740;2023-03-01T07:48:40;17.63;;;10.97;;
8480;SDS011;4277;51.354;6.740;2023-03-01T07:51:06;12.53;;;10.17;;
8480;SDS011;4277;51.354;6.740;2023-03-01T07:53:32;16.77;;;10.60;;
8480;SDS011;4277;51.354;6.740;2023-03-01T07:56:04;15.77;;;11.00;;
8480;SDS011;4277;51.354;6.740;2023-03-01T07:58:35;17.23;;;11.20;;
8480;SDS011;4277;51.354;6.740;2023-03-01T08:01:02;15.80;;;10.70;;
8480;SDS011;4277;51.354;6.740;2023-03-01T08:03:29;14.50;;;10.43;;
8480;SDS011;4277;51.354;6.740;2023-03-01T08:05:55;15.03;;;9.40;;
8480;SDS011;4277;51.354;6.740;2023-03-01T08:08:20;14.23;;;10.03;;
8480;SDS011;4277;51.354;6.740;2023-03-01T08:10:46;14.40;;;9.87;;
8480;SDS011;4277;51.354;6.740;2023-03-01T08:13:12;14.60;;;10.17;;
8480;SDS011;4277;51.354;6.740;2023-03-01T08:15:37;12.80;;;9.47;;
8480;SDS011;4277;51.354;6.740;2023-03-01T08:18:03;13.60;;;9.70;;
8480;SDS011;4277;51.354;6.740;2023-03-01T08:20:28;13.60;;;9.90;;
8480;SDS011;4277;51.354;6.740;2023-03-01T08:22:54;14.50;;;9.80;;
8480;SDS011;4277;51.354;6.740;2023-03-01T08:25:20;12.07;;;9.50;;
8480;SDS011;4277;51.354;6.740;2023-03-01T08:27:46;13.33;;;9.23;;
8480;SDS011;4277;51.354;6.740;2023-03-01T08:30:12;12.90;;;9.17;;
8480;SDS011;4277;51.354;6.740;2023-03-01T08:32:39;11.10;;;9.33;;
8480;SDS011;4277;51.354;6.740;2023-03-01T08:35:05;12.30;;;9.10;;
8480;SDS011;4277;51.354;6.740;2023-03-01T08:37:31;14.33;;;9.17;;
8480;SDS011;4277;51.354;6.740;2023-03-01T08:39:57;13.33;;;8.80;;
8480;SDS011;4277;51.354;6.740;2023-03-01T08:42:23;10.13;;;8.47;;
8480;SDS011;4277;51.354;6.740;2023-03-01T08:44:49;11.90;;;8.93;;
8480;SDS011;4277;51.354;6.740;2023-03-01T08:47:15;15.77;;;9.67;;
8480;SDS011;4277;51.354;6.740;2023-03-01T08:49:41;14.70;;;8.93;;
8480;SDS011;4277;51.354;6.740;2023-03-01T08:52:07;12.17;;;9.40;;
8480;SDS011;4277;51.354;6.740;2023-03-01T08:54:33;12.43;;;9.37;;
8480;SDS011;4277;51.354;6.740;2023-03-01T08:57:01;12.13;;;9.00;;
8480;SDS011;4277;51.354;6.740;2023-03-01T08:59:27;13.10;;;8.43;;
8480;SDS011;4277;51.354;6.740;2023-03-01T09:01:54;10.67;;;8.30;;
8480;SDS011;4277;51.354;6.740;2023-03-01T09:04:20;15.57;;;8.50;;
8480;SDS011;4277;51.354;6.740;2023-03-01T09:06:47;10.60;;;8.43;;
8480;SDS011;4277;51.354;6.740;2023-03-01T09:09:14;10.53;;;8.13;;
8480;SDS011;4277;51.354;6.740;2023-03-01T09:11:40;10.63;;;8.40;;
8480;SDS011;4277;51.354;6.740;2023-03-01T09:14:06;11.37;;;8.57;;
8480;SDS011;4277;51.354;6.740;2023-03-01T09:16:32;10.37;;;8.00;;
8480;SDS011;4277;51.354;6.740;2023-03-01T09:19:01;10.07;;;8.10;;
8480;SDS011;4277;51.354;6.740;2023-03-01T09:21:27;10.10;;;8.03;;
8480;SDS011;4277;51.354;6.740;2023-03-01T09:23:53;12.00;;;8.13;;
8480;SDS011;4277;51.354;6.740;2023-03-01T09:26:22;10.67;;;8.57;;
8480;SDS011;4277;51.354;6.740;2023-03-01T09:28:51;10.67;;;8.50;;
8480;SDS011;4277;51.354;6.740;2023-03-01T09:31:18;10.13;;;8.17;;
8480;SDS011;4277;51.354;6.740;2023-03-01T09:33:47;9.63;;;8.37;;
8480;SDS011;4277;51.354;6.740;2023-03-01T09:36:15;10.83;;;7.90;;
8480;SDS011;4277;51.354;6.740;2023-03-01T09:38:42;10.67;;;8.27;;
8480;SDS011;4277;51.354;6.740;2023-03-01T09:43:59;11.30;;;8.77;;
8480;SDS011;4277;51.354;6.740;2023-03-01T09:46:28;11.80;;;7.80;;
8480;SDS011;4277;51.354;6.740;2023-03-01T09:48:56;10.60;;;8.47;;
8480;SDS011;4277;51.354;6.740;2023-03-01T09:51:33;12.60;;;8.60;;
8480;SDS011;4277;51.354;6.740;2023-03-01T09:54:01;9.57;;;8.17;;
8480;SDS011;4277;51.354;6.740;2023-03-01T09:56:29;11.77;;;8.83;;
8480;SDS011;4277;51.354;6.740;2023-03-01T09:59:13;13.03;;;8.70;;
8480;SDS011;4277;51.354;6.740;2023-03-01T10:09:35;10.87;;;8.20;;
8480;SDS011;4277;51.354;6.740;2023-03-01T10:12:02;13.73;;;8.17;;
8480;SDS011;4277;51.354;6.740;2023-03-01T10:14:33;11.80;;;8.70;;
8480;SDS011;4277;51.354;6.740;2023-03-01T10:19:31;10.07;;;8.03;;
8480;SDS011;4277;51.354;6.740;2023-03-01T10:22:03;10.10;;;7.63;;
8480;SDS011;4277;51.354;6.740;2023-03-01T10:24:29;11.87;;;7.97;;
8480;SDS011;4277;51.354;6.740;2023-03-01T10:26:57;10.37;;;7.80;;
8480;SDS011;4277;51.354;6.740;2023-03-01T10:29:28;11.83;;;7.70;;
8480;SDS011;4277;51.354;6.740;2023-03-01T10:31:56;13.13;;;7.77;;
8480;SDS011;4277;51.354;6.740;2023-03-01T10:34:33;9.63;;;7.40;;
8480;SDS011;4277;51.354;6.740;2023-03-01T10:37:10;9.63;;;7.47;;
8480;SDS011;4277;51.354;6.740;2023-03-01T10:39:36;9.13;;;7.10;;
8480;SDS011;4277;51.354;6.740;2023-03-01T10:44:35;10.63;;;7.43;;
8480;SDS011;4277;51.354;6.740;2023-03-01T10:47:01;9.07;;;7.50;;
8480;SDS011;4277;51.354;6.740;2023-03-01T10:49:27;11.10;;;7.47;;
8480;SDS011;4277;51.354;6.740;2023-03-01T10:51:53;12.33;;;7.43;;
8480;SDS011;4277;51.354;6.740;2023-03-01T10:54:27;10.33;;;7.67;;
8480;SDS011;4277;51.354;6.740;2023-03-01T10:56:55;11.43;;;7.80;;
8480;SDS011;4277;51.354;6.740;2023-03-01T10:59:26;10.50;;;7.50;;
8480;SDS011;4277;51.354;6.740;2023-03-01T11:04:37;10.00;;;7.83;;
8480;SDS011;4277;51.354;6.740;2023-03-01T11:07:03;9.97;;;7.00;;
8480;SDS011;4277;51.354;6.740;2023-03-01T11:09:33;12.03;;;7.53;;
8480;SDS011;4277;51.354;6.740;2023-03-01T11:12:03;8.80;;;6.77;;
8480;SDS011;4277;51.354;6.740;2023-03-01T11:14:33;11.20;;;7.87;;
8480;SDS011;4277;51.354;6.740;2023-03-01T11:17:05;9.60;;;7.10;;
8480;SDS011;4277;51.354;6.740;2023-03-01T11:19:31;10.73;;;7.33;;
8480;SDS011;4277;51.354;6.740;2023-03-01T11:24:43;8.57;;;6.80;;
8480;SDS011;4277;51.354;6.740;2023-03-01T11:29:40;9.87;;;6.80;;
8480;SDS011;4277;51.354;6.740;2023-03-01T11:32:08;9.97;;;7.10;;
8480;SDS011;4277;51.354;6.740;2023-03-01T11:37:01;7.97;;;5.80;;
8480;SDS011;4277;51.354;6.740;2023-03-01T11:39:39;11.00;;;6.60;;
8480;SDS011;4277;51.354;6.740;2023-03-01T11:42:44;8.33;;;6.20;;
8480;SDS011;4277;51.354;6.740;2023-03-01T11:45:02;8.50;;;6.33;;
8480;SDS011;4277;51.354;6.740;2023-03-01T11:47:43;8.63;;;6.00;;
8480;SDS011;4277;51.354;6.740;2023-03-01T11:50:39;7.93;;;6.40;;
8480;SDS011;4277;51.354;6.740;2023-03-01T11:55:59;8.50;;;6.27;;
8480;SDS011;4277;51.354;6.740;2023-03-01T11:58:50;7.93;;;6.40;;
8480;SDS011;4277;51.354;6.740;2023-03-01T12:04:18;9.07;;;6.50;;
8480;SDS011;4277;51.354;6.740;2023-03-01T12:22:36;9.63;;;5.90;;
8480;SDS011;4277;51.354;6.740;2023-03-01T12:30:33;7.23;;;5.73;;
8480;SDS011;4277;51.354;6.740;2023-03-01T12:38:17;9.20;;;6.03;;
8480;SDS011;4277;51.354;6.740;2023-03-01T12:40:53;9.60;;;5.60;;
8480;SDS011;4277;51.354;6.740;2023-03-01T12:46:03;8.23;;;5.90;;
8480;SDS011;4277;51.354;6.740;2023-03-01T12:48:50;25.57;;;16.03;;
8480;SDS011;4277;51.354;6.740;2023-03-01T12:51:24;8.60;;;6.43;;
8480;SDS011;4277;51.354;6.740;2023-03-01T12:53:51;10.23;;;6.00;;
8480;SDS011;4277;51.354;6.740;2023-03-01T12:56:22;6.77;;;5.70;;
8480;SDS011;4277;51.354;6.740;2023-03-01T13:06:47;7.67;;;5.67;;
8480;SDS011;4277;51.354;6.740;2023-03-01T13:11:52;7.87;;;5.47;;
8480;SDS011;4277;51.354;6.740;2023-03-01T13:16:50;10.23;;;5.27;;
8480;SDS011;4277;51.354;6.740;2023-03-01T13:19:21;8.77;;;5.07;;
8480;SDS011;4277;51.354;6.740;2023-03-01T13:21:47;6.77;;;5.20;;
8480;SDS011;4277;51.354;6.740;2023-03-01T13:24:27;7.80;;;5.67;;
8480;SDS011;4277;51.354;6.740;2023-03-01T13:27:08;8.37;;;5.37;;
8480;SDS011;4277;51.354;6.740;2023-03-01T13:32:23;8.20;;;5.47;;
8480;SDS011;4277;51.354;6.740;2023-03-01T13:34:53;11.60;;;5.80;;
8480;SDS011;4277;51.354;6.740;2023-03-01T13:37:21;6.90;;;5.40;;
8480;SDS011;4277;51.354;6.740;2023-03-01T13:39:48;8.57;;;6.10;;
8480;SDS011;4277;51.354;6.740;2023-03-01T13:44:56;9.13;;;5.63;;
8480;SDS011;4277;51.354;6.740;2023-03-01T13:47:22;8.37;;;5.67;;
8480;SDS011;4277;51.354;6.740;2023-03-01T13:49:50;8.53;;;5.53;;
8480;SDS011;4277;51.354;6.740;2023-03-01T13:54:50;6.90;;;5.70;;
8480;SDS011;4277;51.354;6.740;2023-03-01T13:57:19;8.90;;;6.27;;
8480;SDS011;4277;51.354;6.740;2023-03-01T13:59:46;6.87;;;5.77;;
8480;SDS011;4277;51.354;6.740;2023-03-01T14:02:13;8.33;;;5.63;;
8480;SDS011;4277;51.354;6.740;2023-03-01T14:04:39;10.57;;;5.97;;
8480;SDS011;4277;51.354;6.740;2023-03-01T14:07:18;7.30;;;5.90;;
8480;SDS011;4277;51.354;6.740;2023-03-01T14:09:45;7.17;;;5.87;;
8480;SDS011;4277;51.354;6.740;2023-03-01T14:15:04;8.33;;;5.83;;
8480;SDS011;4277;51.354;6.740;2023-03-01T14:17:47;8.30;;;5.80;;
8480;SDS011;4277;51.354;6.740;2023-03-01T14:20:17;7.43;;;5.97;;
8480;SDS011;4277;51.354;6.740;2023-03-01T14:22:44;10.20;;;6.13;;
8480;SDS011;4277;51.354;6.740;2023-03-01T14:25:20;7.97;;;5.97;;
8480;SDS011;4277;51.354;6.740;2023-03-01T14:27:51;8.13;;;6.30;;
8480;SDS011;4277;51.354;6.740;2023-03-01T14:30:22;8.23;;;6.17;;
8480;SDS011;4277;51.354;6.740;2023-03-01T14:32:53;8.37;;;6.30;;
8480;SDS011;4277;51.354;6.740;2023-03-01T14:35:20;8.07;;;5.70;;
8480;SDS011;4277;51.354;6.740;2023-03-01T14:37:46;7.57;;;5.87;;
8480;SDS011;4277;51.354;6.740;2023-03-01T14:40:28;6.80;;;5.60;;
8480;SDS011;4277;51.354;6.740;2023-03-01T14:42:56;10.13;;;6.20;;
8480;SDS011;4277;51.354;6.740;2023-03-01T14:45:23;8.00;;;5.80;;
8480;SDS011;4277;51.354;6.740;2023-03-01T14:47:50;8.07;;;6.27;;
8480;SDS011;4277;51.354;6.740;2023-03-01T14:50:29;8.83;;;6.30;;
8480;SDS011;4277;51.354;6.740;2023-03-01T14:52:59;7.97;;;6.07;;
8480;SDS011;4277;51.354;6.740;2023-03-01T14:55:27;8.40;;;6.40;;
8480;SDS011;4277;51.354;6.740;2023-03-01T14:57:55;8.40;;;6.27;;
8480;SDS011;4277;51.354;6.740;2023-03-01T15:00:23;7.30;;;6.30;;
8480;SDS011;4277;51.354;6.740;2023-03-01T15:02:50;8.90;;;6.30;;
8480;SDS011;4277;51.354;6.740;2023-03-01T15:05:18;10.00;;;6.50;;
8480;SDS011;4277;51.354;6.740;2023-03-01T15:07:44;12.17;;;6.10;;
8480;SDS011;4277;51.354;6.740;2023-03-01T15:10:17;8.47;;;6.47;;
8480;SDS011;4277;51.354;6.740;2023-03-01T15:12:45;8.03;;;6.27;;
8480;SDS011;4277;51.354;6.740;2023-03-01T15:18:18;8.43;;;6.03;;
8480;SDS011;4277;51.354;6.740;2023-03-01T15:20:45;9.53;;;6.77;;
8480;SDS011;4277;51.354;6.740;2023-03-01T15:23:28;8.00;;;6.37;;
8480;SDS011;4277;51.354;6.740;2023-03-01T15:25:54;10.53;;;6.67;;
8480;SDS011;4277;51.354;6.740;2023-03-01T15:28:25;7.53;;;6.10;;
8480;SDS011;4277;51.354;6.740;2023-03-01T15:30:59;7.83;;;6.17;;
8480;SDS011;4277;51.354;6.740;2023-03-01T15:35:52;9.30;;;6.13;;
8480;SDS011;4277;51.354;6.740;2023-03-01T15:38:29;10.37;;;6.77;;
8480;SDS011;4277;51.354;6.740;2023-03-01T15:40:57;8.77;;;6.50;;
8480;SDS011;4277;51.354;6.740;2023-03-01T15:43:39;8.47;;;6.30;;
8480;SDS011;4277;51.354;6.740;2023-03-01T15:46:11;9.03;;;6.57;;
8480;SDS011;4277;51.354;6.740;2023-03-01T15:48:38;7.07;;;6.07;;
8480;SDS011;4277;51.354;6.740;2023-03-01T15:51:04;8.47;;;6.43;;
8480;SDS011;4277;51.354;6.740;2023-03-01T15:53:30;8.10;;;6.13;;
8480;SDS011;4277;51.354;6.740;2023-03-01T15:55:56;9.10;;;5.87;;
8480;SDS011;4277;51.354;6.740;2023-03-01T15:58:23;9.97;;;6.17;;
8480;SDS011;4277;51.354;6.740;2023-03-01T16:00:49;8.20;;;6.00;;
8480;SDS011;4277;51.354;6.740;2023-03-01T16:03:20;7.30;;;5.83;;
8480;SDS011;4277;51.354;6.740;2023-03-01T16:05:47;7.37;;;5.77;;
8480;SDS011;4277;51.354;6.740;2023-03-01T16:08:13;9.30;;;5.50;;
8480;SDS011;4277;51.354;6.740;2023-03-01T16:10:40;9.13;;;5.80;;
8480;SDS011;4277;51.354;6.740;2023-03-01T16:13:06;12.23;;;6.17;;
8480;SDS011;4277;51.354;6.740;2023-03-01T16:15:32;12.03;;;6.50;;
8480;SDS011;4277;51.354;6.740;2023-03-01T16:18:00;8.63;;;6.00;;
8480;SDS011;4277;51.354;6.740;2023-03-01T16:20:26;10.67;;;6.53;;
8480;SDS011;4277;51.354;6.740;2023-03-01T16:22:52;8.43;;;6.13;;
8480;SDS011;4277;51.354;6.740;2023-03-01T16:25:19;11.87;;;6.63;;
8480;SDS011;4277;51.354;6.740;2023-03-01T16:27:46;11.67;;;6.83;;
8480;SDS011;4277;51.354;6.740;2023-03-01T16:30:13;12.37;;;7.13;;
8480;SDS011;4277;51.354;6.740;2023-03-01T16:32:39;8.80;;;6.40;;
8480;SDS011;4277;51.354;6.740;2023-03-01T16:35:06;11.33;;;6.67;;
8480;SDS011;4277;51.354;6.740;2023-03-01T16:37:32;9.57;;;6.57;;
8480;SDS011;4277;51.354;6.740;2023-03-01T16:39:58;11.03;;;5.93;;
8480;SDS011;4277;51.354;6.740;2023-03-01T16:42:25;9.03;;;6.23;;
8480;SDS011;4277;51.354;6.740;2023-03-01T16:44:54;8.07;;;6.10;;
8480;SDS011;4277;51.354;6.740;2023-03-01T16:47:20;11.47;;;6.40;;
8480;SDS011;4277;51.354;6.740;2023-03-01T16:49:46;9.20;;;6.70;;
8480;SDS011;4277;51.354;6.740;2023-03-01T16:52:12;7.43;;;6.30;;
8480;SDS011;4277;51.354;6.740;2023-03-01T16:54:38;9.00;;;6.27;;
8480;SDS011;4277;51.354;6.740;2023-03-01T16:57:05;8.07;;;6.17;;